Oluja — V7QE8 — position and weather

sailwx.info

Track history (hours):
 
Tides and Currents Weather Stations Pressure Air Temp Water Temp Dewpoint Dewpoint Depression Visibility Wind Speed Wind Dir Waves Ship Positions

Oluja

Last reported at 2017-Aug-16 01:32 UTC. Time now 2017-Sep-25 02:54 UTC.
Position N 08°53' W 079°31'.
Warning: this ship's position is 40 days out of date.

Length 188 m; draft 9.6 m.

Type: Cargo ship. MMSI: 538003345.

Date/timePositionNaut miles runAvg speedWind from/ knotsBaromVisibWave heightAir tempDewpointWater temp
2017-Aug-16 01:32N 08°53' W 079°31'1 7.3
2017-Aug-16 01:22N 08°54' W 079°32'26 4.0
2017-Aug-15 18:49N 09°11' W 079°52'2 5.4
2017-Aug-15 18:22N 09°12' W 079°54'2 5.3
2017-Aug-15 18:00N 09°13' W 079°55'1 1.9
2017-Aug-15 17:17N 09°14' W 079°56'0 0.0
2017-Aug-15 16:56N 09°14' W 079°56'0 0.1
2017-Aug-15 16:29N 09°14' W 079°56'0 0.0
2017-Aug-15 15:59N 09°14' W 079°56'0 0.0
2017-Aug-15 15:29N 09°14' W 079°56'0 0.1
2017-Aug-15 14:59N 09°14' W 079°56'0 0.1
2017-Aug-15 14:11N 09°14' W 079°56'0 0.2
2017-Aug-15 13:56N 09°14' W 079°56'0 0.0
2017-Aug-15 13:29N 09°14' W 079°56'0 0.0
2017-Aug-15 12:59N 09°14' W 079°56'0 0.0
2017-Aug-15 12:26N 09°14' W 079°56'0 0.0
2017-Aug-15 11:59N 09°14' W 079°56'0 0.0
2017-Aug-15 11:29N 09°14' W 079°56'0 0.0
2017-Aug-15 10:59N 09°14' W 079°56'0 0.0
2017-Aug-15 10:29N 09°14' W 079°56'0 0.0
2017-Aug-15 09:59N 09°14' W 079°56'0 0.0
2017-Aug-15 09:29N 09°14' W 079°56'0 0.0
2017-Aug-15 08:59N 09°14' W 079°56'0 0.0
2017-Aug-15 08:29N 09°14' W 079°56'0 0.0
2017-Aug-15 07:59N 09°14' W 079°56'1 1.2
2017-Aug-15 07:29N 09°14' W 079°55'2 3.7
2017-Aug-15 07:00N 09°16' W 079°55'0 0.4
2017-Aug-15 06:30N 09°16' W 079°55'0 0.8
2017-Aug-15 06:00N 09°17' W 079°55'0 0.0
2017-Aug-15 05:30N 09°17' W 079°55'0 0.4
2017-Aug-15 05:01N 09°17' W 079°55'2 4.0
2017-Aug-15 04:31N 09°19' W 079°55'2 4.3
2017-Aug-15 04:00N 09°21' W 079°55'1 1.7
2017-Aug-15 03:31N 09°22' W 079°56'0 0.0
2017-Aug-15 03:01N 09°22' W 079°56'0 0.0
2017-Aug-15 02:30N 09°22' W 079°56'0 0.0
2017-Aug-15 02:01N 09°22' W 079°56'0 0.0
2017-Aug-15 01:30N 09°22' W 079°56'0 0.2
2017-Aug-15 01:01N 09°22' W 079°55'1 1.1
2017-Aug-15 00:30N 09°22' W 079°55'3 6.3
2017-Aug-15 00:01N 09°26' W 079°55'3 5.8
2017-Aug-14 23:31N 09°28' W 079°54'3 0.4
2017-Aug-14 16:34N 09°31' W 079°56'0 0.0
2017-Aug-14 16:25N 09°31' W 079°56'0 0.1
2017-Aug-14 15:58N 09°31' W 079°56'0 0.1
2017-Aug-14 15:28N 09°31' W 079°56'0 0.0
2017-Aug-14 12:28N 09°31' W 079°56'0 0.0
2017-Aug-14 11:58N 09°31' W 079°56'0 0.0
2017-Aug-14 11:16N 09°31' W 079°56'0 0.0
2017-Aug-14 10:58N 09°31' W 079°56'0 0.0
2017-Aug-14 10:28N 09°31' W 079°56'0 0.0
2017-Aug-14 09:43N 09°31' W 079°56'0 0.0
2017-Aug-14 09:28N 09°31' W 079°56'0 0.0
2017-Aug-14 08:58N 09°31' W 079°56'0 0.0
2017-Aug-14 08:19N 09°31' W 079°56'0 0.0
2017-Aug-14 07:49N 09°31' W 079°56'0 0.0
2017-Aug-14 02:28N 09°31' W 079°56'0 0.0
2017-Aug-14 01:58N 09°31' W 079°56'0 0.0
2017-Aug-14 01:25N 09°31' W 079°56'0 0.0
2017-Aug-13 23:22N 09°31' W 079°56'0 0.0
2017-Aug-13 22:19N 09°31' W 079°56'0 0.0
2017-Aug-13 21:58N 09°31' W 079°56'0 0.0
2017-Aug-13 21:22N 09°31' W 079°56'0 0.0
2017-Aug-13 20:49N 09°31' W 079°56'0 0.0
2017-Aug-13 20:22N 09°31' W 079°56'0 0.0
2017-Aug-13 19:52N 09°31' W 079°56'0 0.0
2017-Aug-13 19:28N 09°31' W 079°56'0 0.0
2017-Aug-13 18:58N 09°31' W 079°56'0 0.0
2017-Aug-13 17:55N 09°31' W 079°56'0 0.0
2017-Aug-13 17:13N 09°31' W 079°56'0 0.0
2017-Aug-13 16:58N 09°31' W 079°56'0 0.0
2017-Aug-13 15:58N 09°31' W 079°56'0 0.0
2017-Aug-13 15:10N 09°31' W 079°56'0 0.0
2017-Aug-13 14:34N 09°31' W 079°56'0 0.0
2017-Aug-13 14:28N 09°31' W 079°56'0 0.0
2017-Aug-13 13:58N 09°31' W 079°56'0 0.0
2017-Aug-13 13:28N 09°31' W 079°56'0 0.1
2017-Aug-13 12:58N 09°31' W 079°56'0 0.0
2017-Aug-13 12:28N 09°31' W 079°56'0 0.0
2017-Aug-13 11:58N 09°31' W 079°56'0 0.0
2017-Aug-13 11:28N 09°31' W 079°56'0 0.0
2017-Aug-13 10:55N 09°31' W 079°56'0 0.0
2017-Aug-13 10:19N 09°31' W 079°56'0 0.0
2017-Aug-13 09:46N 09°31' W 079°56'0 0.0
2017-Aug-13 09:22N 09°31' W 079°56'0 0.0
2017-Aug-13 08:58N 09°31' W 079°56'0 0.0
2017-Aug-13 08:28N 09°31' W 079°56'0 0.0
2017-Aug-13 07:55N 09°31' W 079°56'0 0.0
2017-Aug-13 07:25N 09°31' W 079°56'0 0.0
2017-Aug-13 06:58N 09°31' W 079°56'0 0.0
2017-Aug-13 06:28N 09°31' W 079°56'0 0.0
2017-Aug-13 05:58N 09°31' W 079°56'0 0.0
2017-Aug-13 05:28N 09°31' W 079°56'0 0.0
2017-Aug-13 04:58N 09°31' W 079°56'0 0.0
2017-Aug-13 04:28N 09°31' W 079°56'0 0.0
2017-Aug-13 03:52N 09°31' W 079°56'0 0.0
2017-Aug-13 02:43N 09°31' W 079°56'0 0.0
2017-Aug-13 02:22N 09°31' W 079°56'0 0.0
2017-Aug-13 01:58N 09°31' W 079°56'0 0.0
2017-Aug-13 01:25N 09°31' W 079°56'0 0.0
2017-Aug-13 00:46N 09°31' W 079°56'0 0.0
2017-Aug-12 23:13N 09°31' W 079°56'0 0.0
2017-Aug-12 22:43N 09°31' W 079°56'0 0.0
2017-Aug-12 22:28N 09°31' W 079°56'0 0.0
2017-Aug-12 21:46N 09°31' W 079°56'0 0.0
2017-Aug-12 21:28N 09°31' W 079°56'0 0.0
2017-Aug-12 20:58N 09°31' W 079°56'0 0.0
2017-Aug-12 20:28N 09°31' W 079°56'0 0.0
2017-Aug-12 19:58N 09°31' W 079°56'0 0.0
2017-Aug-12 19:25N 09°31' W 079°56'0 0.0
2017-Aug-12 18:58N 09°31' W 079°56'0 0.0
2017-Aug-12 18:28N 09°31' W 079°56'0 0.0
2017-Aug-12 17:58N 09°31' W 079°56'0 0.0
2017-Aug-12 17:28N 09°31' W 079°56'0 0.0
2017-Aug-12 16:58N 09°31' W 079°56'0 0.0
2017-Aug-12 16:25N 09°31' W 079°56'0 0.0
2017-Aug-12 15:04N 09°31' W 079°56'0 0.0
2017-Aug-12 14:46N 09°31' W 079°56'0 0.0
2017-Aug-12 14:28N 09°31' W 079°56'0 0.0
2017-Aug-12 13:58N 09°31' W 079°56'0 0.0
2017-Aug-12 13:28N 09°31' W 079°56'0 0.0
2017-Aug-12 12:58N 09°31' W 079°56'0 0.0
2017-Aug-12 12:25N 09°31' W 079°56'0 0.0
2017-Aug-12 11:58N 09°31' W 079°56'0 0.0
2017-Aug-12 11:28N 09°31' W 079°56'0 0.0
2017-Aug-12 10:58N 09°31' W 079°56'0 0.0
2017-Aug-12 10:28N 09°31' W 079°56'0 0.0
2017-Aug-12 09:58N 09°31' W 079°56'0 0.0
2017-Aug-12 09:28N 09°31' W 079°56'0 0.0
2017-Aug-12 08:58N 09°31' W 079°56'0 0.0
2017-Aug-12 08:28N 09°31' W 079°56'0 0.0
2017-Aug-12 07:58N 09°31' W 079°56'0 0.0
2017-Aug-12 07:28N 09°31' W 079°56'0 0.0
2017-Aug-12 06:58N 09°31' W 079°56'0 0.0
2017-Aug-12 06:28N 09°31' W 079°56'0 0.0
2017-Aug-12 05:58N 09°31' W 079°56'0 0.0
2017-Aug-12 05:28N 09°31' W 079°56'0 0.0
2017-Aug-12 04:58N 09°31' W 079°56'0 0.0
2017-Aug-12 04:28N 09°31' W 079°56'0 0.0
2017-Aug-12 03:58N 09°31' W 079°56'0 0.0
2017-Aug-12 03:28N 09°31' W 079°56'0 0.1
2017-Aug-12 02:58N 09°31' W 079°56'0 0.1
2017-Aug-12 02:28N 09°31' W 079°56'0 0.8
2017-Aug-12 02:00N 09°31' W 079°56'2 4.1
2017-Aug-12 01:30N 09°32' W 079°54'3 5.7
2017-Aug-12 01:00N 09°34' W 079°52'510.5
2017-Aug-12 00:30N 09°39' W 079°50'  
2017-Aug-07 14:00N 39°16' W 076°34'0 0.0
2017-Aug-07 13:30N 39°16' W 076°34'0 0.0
2017-Aug-07 13:00N 39°16' W 076°34'0 0.6
2017-Aug-07 12:30N 39°15' W 076°34'0 0.4
2017-Aug-07 12:00N 39°16' W 076°34'0 0.2
2017-Aug-07 11:30N 39°16' W 076°34'0 0.0
2017-Aug-07 11:00N 39°16' W 076°34'0 0.0
2017-Aug-07 10:30N 39°16' W 076°34'1 3.0
2017-Aug-07 10:00N 39°14' W 076°33'1 3.0
2017-Aug-07 09:30N 39°16' W 076°34'0 1.0
2017-Aug-07 09:00N 39°15' W 076°34'0 1.0
2017-Aug-07 08:30N 39°16' W 076°34'0 0.0
2017-Aug-07 08:00N 39°16' W 076°34'0 0.6
2017-Aug-07 07:30N 39°15' W 076°34'0 0.6
2017-Aug-07 07:00N 39°16' W 076°34'0 0.0
2017-Aug-07 06:30N 39°16' W 076°34'0 0.0
2017-Aug-07 06:00N 39°16' W 076°34'0 0.0
2017-Aug-07 05:30N 39°16' W 076°34'1 1.3
2017-Aug-07 05:00N 39°15' W 076°34'1 1.3
2017-Aug-07 04:30N 39°16' W 076°34'0 0.0
2017-Aug-07 04:00N 39°16' W 076°34'0 0.0
2017-Aug-07 03:30N 39°16' W 076°34'0 0.0
2017-Aug-07 03:00N 39°16' W 076°34'0 0.2
2017-Aug-07 02:30N 39°16' W 076°34'0 0.1
2017-Aug-07 01:50N 39°16' W 076°34'0 0.0
2017-Aug-07 01:30N 39°16' W 076°34'0 0.0
2017-Aug-07 01:00N 39°16' W 076°34'0 0.0
2017-Aug-07 00:30N 39°16' W 076°34'0 0.2
2017-Aug-07 00:00N 39°16' W 076°34'0 0.2
2017-Aug-06 23:30N 39°16' W 076°34'0 0.0
2017-Aug-06 23:00N 39°16' W 076°34'0 0.0
2017-Aug-06 22:30N 39°16' W 076°34'0 0.0
2017-Aug-06 22:00N 39°16' W 076°34'1 1.3
2017-Aug-06 21:30N 39°15' W 076°34'1 1.3
2017-Aug-06 21:00N 39°16' W 076°34'0 0.0
2017-Aug-06 20:30N 39°16' W 076°34'0 0.2
2017-Aug-06 20:00N 39°16' W 076°34'0 0.0
2017-Aug-06 19:30N 39°16' W 076°34'0 0.2
2017-Aug-06 19:00N 39°16' W 076°34'0 0.1
2017-Aug-06 18:30N 39°16' W 076°34'0 0.1
2017-Aug-06 18:00N 39°16' W 076°34'0 0.2
2017-Aug-06 17:30N 39°16' W 076°34'0 0.2
2017-Aug-06 17:00N 39°16' W 076°34'0 0.2
2017-Aug-06 16:30N 39°16' W 076°34'0 0.1
2017-Aug-06 16:00N 39°16' W 076°34'0 0.2
2017-Aug-06 15:30N 39°16' W 076°34'0 0.0
2017-Aug-06 15:00N 39°16' W 076°34'0 0.0
2017-Aug-06 14:30N 39°16' W 076°34'0 0.1
2017-Aug-06 14:00N 39°16' W 076°34'0 0.1
2017-Aug-06 13:30N 39°16' W 076°34'0 0.0
2017-Aug-06 13:00N 39°16' W 076°34'0 0.2
2017-Aug-06 12:30N 39°16' W 076°34'0 0.2
2017-Aug-06 12:00N 39°16' W 076°34'0 1.0
2017-Aug-06 11:30N 39°15' W 076°34'0 1.0
2017-Aug-06 11:00N 39°16' W 076°34'0 0.0
2017-Aug-06 10:30N 39°16' W 076°34'0 0.0
2017-Aug-06 10:00N 39°16' W 076°34'0 0.0
2017-Aug-06 09:30N 39°16' W 076°34'0 0.9
2017-Aug-06 09:00N 39°15' W 076°34'1 1.6
2017-Aug-06 08:30N 39°15' W 076°33'1 2.5
2017-Aug-06 08:00N 39°16' W 076°34'0 0.0
2017-Aug-06 07:30N 39°16' W 076°34'0 0.0
2017-Aug-06 07:00N 39°16' W 076°34'0 0.0
2017-Aug-06 06:30N 39°16' W 076°34'0 0.0
2017-Aug-06 06:00N 39°16' W 076°34'0 0.0
2017-Aug-06 05:30N 39°16' W 076°34'0 0.0
2017-Aug-06 05:00N 39°16' W 076°34'0 0.0
2017-Aug-06 04:30N 39°16' W 076°34'0 0.0
2017-Aug-06 04:00N 39°16' W 076°34'0 0.0
2017-Aug-06 03:30N 39°16' W 076°34'0 0.0
2017-Aug-06 03:00N 39°16' W 076°34'0 0.0
2017-Aug-06 02:30N 39°16' W 076°34'0 0.0
2017-Aug-06 02:00N 39°16' W 076°34'  
Track history (hours):
 
Tides and Currents Weather Stations Pressure Air Temp Water Temp Dewpoint Dewpoint Depression Visibility Wind Speed Wind Dir Waves Ship Positions

Oluja

Last reported at 2017-Aug-16 01:32 UTC. Time now 2017-Sep-25 02:54 UTC.
Position N 08°53' W 079°31'.
Warning: this ship's position is 40 days out of date.

Length 188 m; draft 9.6 m.

Type: Cargo ship. MMSI: 538003345.

Date/timePositionNaut miles runAvg speedWind from/ knotsBaromVisibWave heightAir tempDewpointWater temp
2017-Aug-16 01:32N 08°53' W 079°31'1 7.3
2017-Aug-16 01:22N 08°54' W 079°32'26 4.0
2017-Aug-15 18:49N 09°11' W 079°52'2 5.4
2017-Aug-15 18:22N 09°12' W 079°54'2 5.3
2017-Aug-15 18:00N 09°13' W 079°55'1 1.9
2017-Aug-15 17:17N 09°14' W 079°56'0 0.0
2017-Aug-15 16:56N 09°14' W 079°56'0 0.1
2017-Aug-15 16:29N 09°14' W 079°56'0 0.0
2017-Aug-15 15:59N 09°14' W 079°56'0 0.0
2017-Aug-15 15:29N 09°14' W 079°56'0 0.1
2017-Aug-15 14:59N 09°14' W 079°56'0 0.1
2017-Aug-15 14:11N 09°14' W 079°56'0 0.2
2017-Aug-15 13:56N 09°14' W 079°56'0 0.0
2017-Aug-15 13:29N 09°14' W 079°56'0 0.0
2017-Aug-15 12:59N 09°14' W 079°56'0 0.0
2017-Aug-15 12:26N 09°14' W 079°56'0 0.0
2017-Aug-15 11:59N 09°14' W 079°56'0 0.0
2017-Aug-15 11:29N 09°14' W 079°56'0 0.0
2017-Aug-15 10:59N 09°14' W 079°56'0 0.0
2017-Aug-15 10:29N 09°14' W 079°56'0 0.0
2017-Aug-15 09:59N 09°14' W 079°56'0 0.0
2017-Aug-15 09:29N 09°14' W 079°56'0 0.0
2017-Aug-15 08:59N 09°14' W 079°56'0 0.0
2017-Aug-15 08:29N 09°14' W 079°56'0 0.0
2017-Aug-15 07:59N 09°14' W 079°56'1 1.2
2017-Aug-15 07:29N 09°14' W 079°55'2 3.7
2017-Aug-15 07:00N 09°16' W 079°55'0 0.4
2017-Aug-15 06:30N 09°16' W 079°55'0 0.8
2017-Aug-15 06:00N 09°17' W 079°55'0 0.0
2017-Aug-15 05:30N 09°17' W 079°55'0 0.4
2017-Aug-15 05:01N 09°17' W 079°55'2 4.0
2017-Aug-15 04:31N 09°19' W 079°55'2 4.3
2017-Aug-15 04:00N 09°21' W 079°55'1 1.7
2017-Aug-15 03:31N 09°22' W 079°56'0 0.0
2017-Aug-15 03:01N 09°22' W 079°56'0 0.0
2017-Aug-15 02:30N 09°22' W 079°56'0 0.0
2017-Aug-15 02:01N 09°22' W 079°56'0 0.0
2017-Aug-15 01:30N 09°22' W 079°56'0 0.2
2017-Aug-15 01:01N 09°22' W 079°55'1 1.1
2017-Aug-15 00:30N 09°22' W 079°55'3 6.3
2017-Aug-15 00:01N 09°26' W 079°55'3 5.8
2017-Aug-14 23:31N 09°28' W 079°54'3 0.4
2017-Aug-14 16:34N 09°31' W 079°56'0 0.0
2017-Aug-14 16:25N 09°31' W 079°56'0 0.1
2017-Aug-14 15:58N 09°31' W 079°56'0 0.1
2017-Aug-14 15:28N 09°31' W 079°56'0 0.0
2017-Aug-14 12:28N 09°31' W 079°56'0 0.0
2017-Aug-14 11:58N 09°31' W 079°56'0 0.0
2017-Aug-14 11:16N 09°31' W 079°56'0 0.0
2017-Aug-14 10:58N 09°31' W 079°56'0 0.0
2017-Aug-14 10:28N 09°31' W 079°56'0 0.0
2017-Aug-14 09:43N 09°31' W 079°56'0 0.0
2017-Aug-14 09:28N 09°31' W 079°56'0 0.0
2017-Aug-14 08:58N 09°31' W 079°56'0 0.0
2017-Aug-14 08:19N 09°31' W 079°56'0 0.0
2017-Aug-14 07:49N 09°31' W 079°56'0 0.0
2017-Aug-14 02:28N 09°31' W 079°56'0 0.0
2017-Aug-14 01:58N 09°31' W 079°56'0 0.0
2017-Aug-14 01:25N 09°31' W 079°56'0 0.0
2017-Aug-13 23:22N 09°31' W 079°56'0 0.0
2017-Aug-13 22:19N 09°31' W 079°56'0 0.0
2017-Aug-13 21:58N 09°31' W 079°56'0 0.0
2017-Aug-13 21:22N 09°31' W 079°56'0 0.0
2017-Aug-13 20:49N 09°31' W 079°56'0 0.0
2017-Aug-13 20:22N 09°31' W 079°56'0 0.0
2017-Aug-13 19:52N 09°31' W 079°56'0 0.0
2017-Aug-13 19:28N 09°31' W 079°56'0 0.0
2017-Aug-13 18:58N 09°31' W 079°56'0 0.0
2017-Aug-13 17:55N 09°31' W 079°56'0 0.0
2017-Aug-13 17:13N 09°31' W 079°56'0 0.0
2017-Aug-13 16:58N 09°31' W 079°56'0 0.0
2017-Aug-13 15:58N 09°31' W 079°56'0 0.0
2017-Aug-13 15:10N 09°31' W 079°56'0 0.0
2017-Aug-13 14:34N 09°31' W 079°56'0 0.0
2017-Aug-13 14:28N 09°31' W 079°56'0 0.0
2017-Aug-13 13:58N 09°31' W 079°56'0 0.0
2017-Aug-13 13:28N 09°31' W 079°56'0 0.1
2017-Aug-13 12:58N 09°31' W 079°56'0 0.0
2017-Aug-13 12:28N 09°31' W 079°56'0 0.0
2017-Aug-13 11:58N 09°31' W 079°56'0 0.0
2017-Aug-13 11:28N 09°31' W 079°56'0 0.0
2017-Aug-13 10:55N 09°31' W 079°56'0 0.0
2017-Aug-13 10:19N 09°31' W 079°56'0 0.0
2017-Aug-13 09:46N 09°31' W 079°56'0 0.0
2017-Aug-13 09:22N 09°31' W 079°56'0 0.0
2017-Aug-13 08:58N 09°31' W 079°56'0 0.0
2017-Aug-13 08:28N 09°31' W 079°56'0 0.0
2017-Aug-13 07:55N 09°31' W 079°56'0 0.0
2017-Aug-13 07:25N 09°31' W 079°56'0 0.0
2017-Aug-13 06:58N 09°31' W 079°56'0 0.0
2017-Aug-13 06:28N 09°31' W 079°56'0 0.0
2017-Aug-13 05:58N 09°31' W 079°56'0 0.0
2017-Aug-13 05:28N 09°31' W 079°56'0 0.0
2017-Aug-13 04:58N 09°31' W 079°56'0 0.0
2017-Aug-13 04:28N 09°31' W 079°56'0 0.0
2017-Aug-13 03:52N 09°31' W 079°56'0 0.0
2017-Aug-13 02:43N 09°31' W 079°56'0 0.0
2017-Aug-13 02:22N 09°31' W 079°56'0 0.0
2017-Aug-13 01:58N 09°31' W 079°56'0 0.0
2017-Aug-13 01:25N 09°31' W 079°56'0 0.0
2017-Aug-13 00:46N 09°31' W 079°56'0 0.0
2017-Aug-12 23:13N 09°31' W 079°56'0 0.0
2017-Aug-12 22:43N 09°31' W 079°56'0 0.0
2017-Aug-12 22:28N 09°31' W 079°56'0 0.0
2017-Aug-12 21:46N 09°31' W 079°56'0 0.0
2017-Aug-12 21:28N 09°31' W 079°56'0 0.0
2017-Aug-12 20:58N 09°31' W 079°56'0 0.0
2017-Aug-12 20:28N 09°31' W 079°56'0 0.0
2017-Aug-12 19:58N 09°31' W 079°56'0 0.0
2017-Aug-12 19:25N 09°31' W 079°56'0 0.0
2017-Aug-12 18:58N 09°31' W 079°56'0 0.0
2017-Aug-12 18:28N 09°31' W 079°56'0 0.0
2017-Aug-12 17:58N 09°31' W 079°56'0 0.0
2017-Aug-12 17:28N 09°31' W 079°56'0 0.0
2017-Aug-12 16:58N 09°31' W 079°56'0 0.0
2017-Aug-12 16:25N 09°31' W 079°56'0 0.0
2017-Aug-12 15:04N 09°31' W 079°56'0 0.0
2017-Aug-12 14:46N 09°31' W 079°56'0 0.0
2017-Aug-12 14:28N 09°31' W 079°56'0 0.0
2017-Aug-12 13:58N 09°31' W 079°56'0 0.0
2017-Aug-12 13:28N 09°31' W 079°56'0 0.0
2017-Aug-12 12:58N 09°31' W 079°56'0 0.0
2017-Aug-12 12:25N 09°31' W 079°56'0 0.0
2017-Aug-12 11:58N 09°31' W 079°56'0 0.0
2017-Aug-12 11:28N 09°31' W 079°56'0 0.0
2017-Aug-12 10:58N 09°31' W 079°56'0 0.0
2017-Aug-12 10:28N 09°31' W 079°56'0 0.0
2017-Aug-12 09:58N 09°31' W 079°56'0 0.0
2017-Aug-12 09:28N 09°31' W 079°56'0 0.0
2017-Aug-12 08:58N 09°31' W 079°56'0 0.0
2017-Aug-12 08:28N 09°31' W 079°56'0 0.0
2017-Aug-12 07:58N 09°31' W 079°56'0 0.0
2017-Aug-12 07:28N 09°31' W 079°56'0 0.0
2017-Aug-12 06:58N 09°31' W 079°56'0 0.0
2017-Aug-12 06:28N 09°31' W 079°56'0 0.0
2017-Aug-12 05:58N 09°31' W 079°56'0 0.0
2017-Aug-12 05:28N 09°31' W 079°56'0 0.0
2017-Aug-12 04:58N 09°31' W 079°56'0 0.0
2017-Aug-12 04:28N 09°31' W 079°56'0 0.0
2017-Aug-12 03:58N 09°31' W 079°56'0 0.0
2017-Aug-12 03:28N 09°31' W 079°56'0 0.1
2017-Aug-12 02:58N 09°31' W 079°56'0 0.1
2017-Aug-12 02:28N 09°31' W 079°56'0 0.8
2017-Aug-12 02:00N 09°31' W 079°56'2 4.1
2017-Aug-12 01:30N 09°32' W 079°54'3 5.7
2017-Aug-12 01:00N 09°34' W 079°52'510.5
2017-Aug-12 00:30N 09°39' W 079°50'  
2017-Aug-07 14:00N 39°16' W 076°34'0 0.0
2017-Aug-07 13:30N 39°16' W 076°34'0 0.0
2017-Aug-07 13:00N 39°16' W 076°34'0 0.6
2017-Aug-07 12:30N 39°15' W 076°34'0 0.4
2017-Aug-07 12:00N 39°16' W 076°34'0 0.2
2017-Aug-07 11:30N 39°16' W 076°34'0 0.0
2017-Aug-07 11:00N 39°16' W 076°34'0 0.0
2017-Aug-07 10:30N 39°16' W 076°34'1 3.0
2017-Aug-07 10:00N 39°14' W 076°33'1 3.0
2017-Aug-07 09:30N 39°16' W 076°34'0 1.0
2017-Aug-07 09:00N 39°15' W 076°34'0 1.0
2017-Aug-07 08:30N 39°16' W 076°34'0 0.0
2017-Aug-07 08:00N 39°16' W 076°34'0 0.6
2017-Aug-07 07:30N 39°15' W 076°34'0 0.6
2017-Aug-07 07:00N 39°16' W 076°34'0 0.0
2017-Aug-07 06:30N 39°16' W 076°34'0 0.0
2017-Aug-07 06:00N 39°16' W 076°34'0 0.0
2017-Aug-07 05:30N 39°16' W 076°34'1 1.3
2017-Aug-07 05:00N 39°15' W 076°34'1 1.3
2017-Aug-07 04:30N 39°16' W 076°34'0 0.0
2017-Aug-07 04:00N 39°16' W 076°34'0 0.0
2017-Aug-07 03:30N 39°16' W 076°34'0 0.0
2017-Aug-07 03:00N 39°16' W 076°34'0 0.2
2017-Aug-07 02:30N 39°16' W 076°34'0 0.1
2017-Aug-07 01:50N 39°16' W 076°34'0 0.0
2017-Aug-07 01:30N 39°16' W 076°34'0 0.0
2017-Aug-07 01:00N 39°16' W 076°34'0 0.0
2017-Aug-07 00:30N 39°16' W 076°34'0 0.2
2017-Aug-07 00:00N 39°16' W 076°34'0 0.2
2017-Aug-06 23:30N 39°16' W 076°34'0 0.0
2017-Aug-06 23:00N 39°16' W 076°34'0 0.0
2017-Aug-06 22:30N 39°16' W 076°34'0 0.0
2017-Aug-06 22:00N 39°16' W 076°34'1 1.3
2017-Aug-06 21:30N 39°15' W 076°34'1 1.3
2017-Aug-06 21:00N 39°16' W 076°34'0 0.0
2017-Aug-06 20:30N 39°16' W 076°34'0 0.2
2017-Aug-06 20:00N 39°16' W 076°34'0 0.0
2017-Aug-06 19:30N 39°16' W 076°34'0 0.2
2017-Aug-06 19:00N 39°16' W 076°34'0 0.1
2017-Aug-06 18:30N 39°16' W 076°34'0 0.1
2017-Aug-06 18:00N 39°16' W 076°34'0 0.2
2017-Aug-06 17:30N 39°16' W 076°34'0 0.2
2017-Aug-06 17:00N 39°16' W 076°34'0 0.2
2017-Aug-06 16:30N 39°16' W 076°34'0 0.1
2017-Aug-06 16:00N 39°16' W 076°34'0 0.2
2017-Aug-06 15:30N 39°16' W 076°34'0 0.0
2017-Aug-06 15:00N 39°16' W 076°34'0 0.0
2017-Aug-06 14:30N 39°16' W 076°34'0 0.1
2017-Aug-06 14:00N 39°16' W 076°34'0 0.1
2017-Aug-06 13:30N 39°16' W 076°34'0 0.0
2017-Aug-06 13:00N 39°16' W 076°34'0 0.2
2017-Aug-06 12:30N 39°16' W 076°34'0 0.2
2017-Aug-06 12:00N 39°16' W 076°34'0 1.0
2017-Aug-06 11:30N 39°15' W 076°34'0 1.0
2017-Aug-06 11:00N 39°16' W 076°34'0 0.0
2017-Aug-06 10:30N 39°16' W 076°34'0 0.0
2017-Aug-06 10:00N 39°16' W 076°34'0 0.0
2017-Aug-06 09:30N 39°16' W 076°34'0 0.9
2017-Aug-06 09:00N 39°15' W 076°34'1 1.6
2017-Aug-06 08:30N 39°15' W 076°33'1 2.5
2017-Aug-06 08:00N 39°16' W 076°34'0 0.0
2017-Aug-06 07:30N 39°16' W 076°34'0 0.0
2017-Aug-06 07:00N 39°16' W 076°34'0 0.0
2017-Aug-06 06:30N 39°16' W 076°34'0 0.0
2017-Aug-06 06:00N 39°16' W 076°34'0 0.0
2017-Aug-06 05:30N 39°16' W 076°34'0 0.0
2017-Aug-06 05:00N 39°16' W 076°34'0 0.0
2017-Aug-06 04:30N 39°16' W 076°34'0 0.0
2017-Aug-06 04:00N 39°16' W 076°34'0 0.0
2017-Aug-06 03:30N 39°16' W 076°34'0 0.0
2017-Aug-06 03:00N 39°16' W 076°34'0 0.0
2017-Aug-06 02:30N 39°16' W 076°34'0 0.0
2017-Aug-06 02:00N 39°16' W 076°34'  

Dump ship's entire track history